West Rushville, OH (43163)

7:27 PM EST on February 05, 2016 (GMT -0500)
Fairfield County Weather | | Change Station
CLOSE
Current Station
Personal Weather Station
Location: Lancaster, OH
Elevation: 958 ft
Nearby Weather Stations

Elev 958 ft 39.75 °N, 82.57 °W | Updated 30 seconds ago

Partly Cloudy
Partly Cloudy
30.7 °F
Feels Like 31 °F
N
0.0
Wind Variable Wind from SW
Gusts 0.0 mph

Today
High -- | Low -- °F
--% Chance of Precip.
Yesterday
High -- | Low -- °F
Precip. -- in
Pressure 30.41 in
Visibility 10.0 miles
Clouds Clear
Windchill 31 °F
Dew Point 19 °F
Humidity 62%
Rainfall 0.00 in
Snow Depth Not available.
7:34 AM 5:53 PM
Waning Crescent, 8% visible
METAR KLHQ 052353Z AUTO 00000KT 10SM CLR M01/M06 A3038 RMK AO2 SLP298 T10111061 10039 21011 51004
Pressure 30.41 in
Visibility 10.0 miles
Clouds Clear
Windchill 31 °F
Dew Point 19 °F
Humidity 62%
Rainfall 0.00 in
Snow Depth Not available.
7:34 AM 5:53 PM
Waning Crescent, 8% visible
METAR KLHQ 052353Z AUTO 00000KT 10SM CLR M01/M06 A3038 RMK AO2 SLP298 T10111061 10039 21011 51004

10-Day Weather Forecast

Almanac

Astronomy

Feb. 05, 2016 Rise Set
Actual Time
Civil Twilight
Nautical Twilight
Astronomical Twilight
Moon
Length of Visible Light
Length of Day
Tomorrow will be .
, % of the Moon is Illuminated

Today's Extremes

State Highs State Lows

Community

WunderPhotos

Upload Photos

1,890,897 photos uploaded!

WunderBlog® & News

Nearby

Air Quality

  Air Quality AQ Index Pollutant
Not available.

Snow Depth

Station Depth Elevation

Earthquake Activity

City Distance Mag. Time & Date
Minimum magnitude displayed is 2.5.

Coastal Water Temperatures

Place Temperature

Stations

Nearby Weather Stations

Station Location Temp. Windchill Dew Point Humidity Wind Precip. Elev Updated Type
                   

Watches & Warnings

There are currently no watches in effect.